Time;durP1;ratioP1;P1;durP2;ratioP2;P2;SDS_P1;SDS_P2;PMS_P1;PMS_P2;Temp;Humidity;BMP_temperature;BMP_pressure;BME280_temperature;BME280_humidity;BME280_pressure;Samples;Min_cycle;Max_cycle;Signal;HPM_P1;HPM_P2
2023/10/20 00:01:22;;;;;;;5.15;3.22;;;;;;;;;;5061010;28;20057;-64
2023/10/20 00:03:48;;;;;;;4.97;3.30;;;;;;;;;;5074426;28;20052;-64
2023/10/20 00:06:14;;;;;;;6.05;3.83;;;;;;;;;;5070163;28;20094;-65
2023/10/20 00:08:41;;;;;;;5.18;3.42;;;;;;;;;;5065574;28;20051;-64
2023/10/20 00:11:07;;;;;;;5.60;3.53;;;;;;;;;;5052222;28;20498;-64
2023/10/20 00:13:33;;;;;;;5.28;3.20;;;;;;;;;;5055455;28;20041;-65
2023/10/20 00:15:59;;;;;;;5.40;3.40;;;;;;;;;;5070275;28;20547;-64
2023/10/20 00:18:27;;;;;;;5.30;3.38;;;14.20;95.00;;;;;;5056975;28;20061;-65
2023/10/20 00:20:53;;;;;;;5.50;3.50;;;14.20;94.00;;;;;;5063154;28;20055;-65
2023/10/20 00:23:19;;;;;;;5.15;3.20;;;;;;;;;;5050230;28;20045;-64
2023/10/20 00:25:45;;;;;;;5.10;3.50;;;;;;;;;;5047829;28;20111;-64
2023/10/20 00:28:11;;;;;;;5.50;3.47;;;;;;;;;;5070793;28;20402;-64
2023/10/20 00:30:41;;;;;;;5.28;3.55;;;;;;;;;;5067911;28;20036;-65
2023/10/20 00:33:07;;;;;;;5.22;3.50;;;;;;;;;;5073499;28;20049;-66
2023/10/20 00:35:33;;;;;;;5.82;3.83;;;;;;;;;;5048509;28;20045;-64
2023/10/20 00:38:00;;;;;;;5.53;3.70;;;;;;;;;;5063690;28;20444;-64
2023/10/20 00:40:27;;;;;;;5.80;3.88;;;;;;;;;;5072318;28;20097;-64
2023/10/20 00:42:53;;;;;;;6.28;4.03;;;14.30;95.10;;;;;;5049790;28;20041;-64
2023/10/20 00:45:19;;;;;;;6.53;4.05;;;;;;;;;;5040870;28;20052;-64
2023/10/20 00:47:45;;;;;;;5.63;4.13;;;;;;;;;;5068039;28;20401;-64
2023/10/20 00:50:13;;;;;;;6.22;4.50;;;14.20;95.00;;;;;;5072554;28;20401;-64
2023/10/20 00:52:44;;;;;;;5.85;4.20;;;14.20;93.50;;;;;;5061331;28;20123;-64
2023/10/20 00:55:11;;;;;;;6.85;4.78;;;;;;;;;;5052254;28;20052;-65
2023/10/20 00:57:37;;;;;;;6.15;4.47;;;14.20;94.40;;;;;;5037518;28;20448;-64
2023/10/20 01:00:04;;;;;;;7.57;4.50;;;14.30;93.80;;;;;;5029609;28;20141;-64
2023/10/20 01:02:30;;;;;;;7.80;4.80;;;;;;;;;;5053349;28;20088;-65
2023/10/20 01:04:57;;;;;;;7.90;5.53;;;14.50;94.10;;;;;;5049904;28;20498;-64
2023/10/20 01:07:26;;;;;;;8.27;5.38;;;;;;;;;;5059788;28;20430;-65
2023/10/20 01:09:52;;;;;;;7.03;4.88;;;;;;;;;;5050833;28;20057;-65
2023/10/20 01:12:18;;;;;;;8.25;5.25;;;;;;;;;;5062420;28;20048;-65
2023/10/20 01:14:46;;;;;;;7.72;5.40;;;;;;;;;;5060330;28;20072;-64
2023/10/20 01:17:12;;;;;;;8.13;5.18;;;;;;;;;;5028903;28;20407;-64
2023/10/20 01:19:39;;;;;;;7.43;5.22;;;;;;;;;;5076181;28;20059;-65
2023/10/20 01:22:05;;;;;;;7.28;5.50;;;;;;;;;;5072941;28;20120;-64
2023/10/20 01:24:31;;;;;;;8.10;5.60;;;;;;;;;;5069274;28;20036;-64
2023/10/20 01:26:58;;;;;;;9.20;5.75;;;;;;;;;;5043419;28;20056;-64
2023/10/20 01:29:24;;;;;;;9.00;5.85;;;;;;;;;;5047140;28;20045;-64
2023/10/20 01:31:50;;;;;;;8.90;6.45;;;;;;;;;;5035844;28;20395;-64
2023/10/20 01:34:16;;;;;;;8.75;5.78;;;;;;;;;;5046508;28;20086;-65
2023/10/20 01:36:42;;;;;;;8.63;5.80;;;;;;;;;;5060151;28;20040;-66
2023/10/20 01:39:09;;;;;;;9.25;6.38;;;;;;;;;;5052971;28;20064;-67
2023/10/20 01:41:35;;;;;;;8.70;5.90;;;;;;;;;;5070798;28;20057;-65
2023/10/20 01:44:02;;;;;;;8.43;6.32;;;;;;;;;;5067665;28;20171;-67
2023/10/20 01:46:28;;;;;;;9.57;6.40;;;14.20;94.70;;;;;;5072638;28;20150;-67
2023/10/20 01:48:54;;;;;;;8.95;6.70;;;;;;;;;;5057467;28;20499;-65
2023/10/20 01:51:20;;;;;;;10.02;6.90;;;;;;;;;;5022088;28;20045;-64
2023/10/20 01:53:47;;;;;;;9.80;6.88;;;;;;;;;;5050595;28;20385;-64
2023/10/20 01:56:13;;;;;;;9.88;6.65;;;;;;;;;;5072319;28;20089;-65
2023/10/20 01:58:39;;;;;;;9.95;7.07;;;;;;;;;;5043392;28;20470;-65
2023/10/20 02:01:05;;;;;;;8.60;6.32;;;;;;;;;;5033827;28;20100;-66
2023/10/20 02:03:31;;;;;;;9.18;6.97;;;;;;;;;;5046064;28;20045;-64
2023/10/20 02:05:58;;;;;;;9.23;7.13;;;;;;;;;;5067308;28;20513;-65
2023/10/20 02:08:24;;;;;;;10.70;7.90;;;;;;;;;;5062025;28;20485;-64
2023/10/20 02:10:50;;;;;;;9.50;7.43;;;;;;;;;;5064195;28;20048;-65
2023/10/20 02:13:16;;;;;;;10.13;7.25;;;;;;;;;;5059692;28;20080;-65
2023/10/20 02:15:50;;;;;;;10.32;8.15;;;14.20;94.10;;;;;;5014781;28;20053;-64
2023/10/20 02:18:17;;;;;;;9.55;7.43;;;;;;;;;;5063464;28;20049;-65
2023/10/20 02:20:43;;;;;;;11.07;8.25;;;14.30;95.30;;;;;;5065897;28;20498;-64
2023/10/20 02:23:09;;;;;;;10.60;7.75;;;;;;;;;;5071119;28;20044;-64
2023/10/20 02:25:36;;;;;;;11.77;8.65;;;;;;;;;;5056963;28;20044;-66
2023/10/20 02:28:02;;;;;;;11.25;8.50;;;;;;;;;;5062418;28;20047;-64
2023/10/20 02:30:31;;;;;;;10.52;7.75;;;;;;;;;;5038505;28;20430;-65
2023/10/20 02:32:58;;;;;;;11.20;8.23;;;;;;;;;;5068589;28;20391;-65
2023/10/20 02:35:24;;;;;;;9.85;7.75;;;;;;;;;;5069443;28;20036;-64
2023/10/20 02:37:50;;;;;;;10.98;8.60;;;;;;;;;;5070945;28;20063;-65
2023/10/20 02:40:16;;;;;;;10.75;8.18;;;;;;;;;;5070795;28;20049;-66
2023/10/20 02:42:44;;;;;;;10.63;8.35;;;;;;;;;;5054524;28;20103;-70
2023/10/20 02:45:10;;;;;;;10.93;8.45;;;;;;;;;;5063338;28;20053;-64
2023/10/20 02:47:37;;;;;;;10.38;8.35;;;14.10;95.30;;;;;;5072660;28;20076;-65
2023/10/20 02:50:03;;;;;;;10.27;8.15;;;14.10;95.30;;;;;;5052116;28;20403;-65
2023/10/20 02:52:29;;;;;;;11.75;8.70;;;14.10;95.30;;;;;;5047456;28;20041;-64
2023/10/20 02:54:55;;;;;;;11.13;9.00;;;14.10;94.90;;;;;;5046494;28;20372;-65
2023/10/20 02:57:21;;;;;;;11.50;8.15;;;14.10;94.60;;;;;;5055297;28;20487;-65
2023/10/20 02:59:48;;;;;;;10.68;8.10;;;;;;;;;;5045778;28;20053;-65
2023/10/20 03:02:15;;;;;;;10.98;8.07;;;14.20;94.30;;;;;;5062218;28;20043;-64
2023/10/20 03:04:41;;;;;;;11.75;8.00;;;;;;;;;;5036340;28;20057;-65
2023/10/20 03:07:08;;;;;;;10.60;8.07;;;;;;;;;;5066357;28;20052;-65
2023/10/20 03:09:35;;;;;;;10.38;7.93;;;;;;;;;;5069573;28;20561;-65
2023/10/20 03:12:02;;;;;;;10.70;7.72;;;;;;;;;;5063132;28;20059;-65
2023/10/20 03:14:28;;;;;;;11.88;8.38;;;;;;;;;;5063682;28;20040;-64
2023/10/20 03:16:55;;;;;;;9.48;7.20;;;;;;;;;;5047987;28;20064;-65
2023/10/20 03:19:22;;;;;;;11.18;7.70;;;;;;;;;;5062495;28;20053;-65
2023/10/20 03:21:48;;;;;;;11.55;8.50;;;;;;;;;;5043352;28;20048;-64
2023/10/20 03:24:14;;;;;;;10.32;8.10;;;;;;;;;;5066023;28;20056;-64
2023/10/20 03:26:42;;;;;;;10.77;7.60;;;;;;;;;;5073216;28;20425;-64
2023/10/20 03:29:09;;;;;;;9.85;7.40;;;;;;;;;;5071215;28;20071;-66
2023/10/20 03:31:35;;;;;;;9.93;7.75;;;;;;;;;;5064829;28;20509;-65
2023/10/20 03:34:02;;;;;;;8.95;6.63;;;;;;;;;;5056452;28;20086;-65
2023/10/20 03:36:28;;;;;;;11.32;7.35;;;;;;;;;;5071140;28;20044;-65
2023/10/20 03:38:54;;;;;;;9.88;6.75;;;;;;;;;;5067820;28;20360;-66
2023/10/20 03:41:22;;;;;;;10.70;7.70;;;;;;;;;;5071140;28;20040;-65
2023/10/20 03:43:50;;;;;;;8.95;6.85;;;;;;;;;;5070700;28;20130;-65
2023/10/20 03:46:18;;;;;;;9.18;6.95;;;;;;;;;;5067308;28;20094;-65
2023/10/20 03:48:45;;;;;;;9.30;6.88;;;;;;;;;;5071021;28;20095;-65
2023/10/20 03:51:12;;;;;;;9.98;7.25;;;;;;;;;;5047435;28;20057;-66
2023/10/20 03:53:52;;;;;;;9.02;6.13;;;;;;;;;;5019776;28;20125;-66
2023/10/20 03:56:23;;;;;;;8.25;6.07;;;;;;;;;;5041685;28;20106;-64
2023/10/20 03:58:49;;;;;;;8.95;6.15;;;;;;;;;;5050733;28;20437;-65
2023/10/20 04:01:15;;;;;;;8.20;5.88;;;;;;;;;;5064981;28;20098;-66
2023/10/20 04:03:45;;;;;;;8.55;5.85;;;;;;;;;;5036972;28;20049;-65
2023/10/20 04:06:12;;;;;;;8.43;5.97;;;;;;;;;;5044544;28;20109;-64
2023/10/20 04:08:39;;;;;;;8.02;5.68;;;;;;;;;;5058833;28;20059;-64
2023/10/20 04:11:05;;;;;;;8.60;5.32;;;;;;;;;;5043700;28;20055;-65
2023/10/20 04:13:32;;;;;;;8.38;5.45;;;;;;;;;;5069850;28;20059;-65
2023/10/20 04:15:58;;;;;;;7.35;5.28;;;;;;;;;;5068142;28;20048;-65
2023/10/20 04:18:24;;;;;;;7.95;5.40;;;;;;;;;;5071899;28;20587;-65
2023/10/20 04:20:50;;;;;;;6.90;5.10;;;;;;;;;;5073153;28;20057;-64
2023/10/20 04:23:17;;;;;;;8.75;5.35;;;;;;;;;;5037988;28;20051;-65
2023/10/20 04:25:52;;;;;;;7.30;5.00;;;;;;;;;;5039763;28;20071;-65
2023/10/20 04:28:43;;;;;;;7.85;4.75;;;13.90;93.90;;;;;;5052563;28;20095;-64
2023/10/20 04:42:45;;;;;;;7.30;4.90;;;;;;;;;;5068709;28;20078;-67
2023/10/20 05:01:17;;;;;;;6.10;4.00;;;;;;;;;;5032091;28;20064;-65
2023/10/20 05:03:46;;;;;;;5.85;3.70;;;;;;;;;;5024047;28;20048;-65
2023/10/20 05:06:23;;;;;;;6.72;3.85;;;13.60;94.50;;;;;;5071963;28;20075;-66
2023/10/20 05:08:50;;;;;;;6.18;3.95;;;;;;;;;;5065275;28;20097;-64
2023/10/20 05:11:16;;;;;;;7.72;3.83;;;;;;;;;;5038428;28;20076;-65
2023/10/20 05:13:42;;;;;;;6.13;3.72;;;;;;;;;;5059450;28;20069;-64
2023/10/20 05:16:12;;;;;;;5.75;3.47;;;;;;;;;;5032283;28;20042;-65
2023/10/20 05:18:39;;;;;;;5.93;3.80;;;;;;;;;;5048666;28;20056;-64
2023/10/20 05:21:18;;;;;;;6.28;3.78;;;;;;;;;;5069708;28;20509;-65
2023/10/20 05:23:46;;;;;;;5.30;3.40;;;;;;;;;;5069228;28;20060;-65
2023/10/20 05:26:13;;;;;;;5.28;3.20;;;;;;;;;;5050774;28;20410;-65
2023/10/20 05:28:39;;;;;;;6.10;3.65;;;13.70;95.50;;;;;;5041532;28;20055;-69
2023/10/20 05:31:05;;;;;;;4.90;2.97;;;;;;;;;;5066513;28;20495;-65
2023/10/20 05:33:31;;;;;;;5.57;3.40;;;;;;;;;;5049188;28;20537;-65
2023/10/20 05:36:03;;;;;;;7.78;3.15;;;13.50;94.50;;;;;;5053514;28;20056;-65
2023/10/20 05:38:29;;;;;;;4.85;2.85;;;;;;;;;;5063885;28;20398;-65
2023/10/20 05:40:59;;;;;;;5.05;2.95;;;;;;;;;;5067799;28;20043;-65
2023/10/20 05:43:25;;;;;;;6.93;3.17;;;;;;;;;;5067446;28;20046;-70
2023/10/20 05:45:51;;;;;;;4.90;2.85;;;;;;;;;;5057138;28;20080;-64
2023/10/20 05:48:17;;;;;;;5.22;2.53;;;;;;;;;;5036077;28;20414;-64
2023/10/20 05:50:43;;;;;;;4.82;2.70;;;;;;;;;;5035736;28;20368;-66
2023/10/20 05:53:10;;;;;;;4.80;2.65;;;;;;;;;;5046837;28;20053;-64
2023/10/20 05:55:37;;;;;;;4.22;2.35;;;;;;;;;;5032800;28;20038;-65
2023/10/20 05:58:03;;;;;;;5.05;2.50;;;;;;;;;;5057569;28;20111;-64
2023/10/20 06:00:29;;;;;;;4.32;2.47;;;;;;;;;;5067871;28;20095;-66
2023/10/20 06:02:56;;;;;;;4.47;2.38;;;;;;;;;;5052365;28;20493;-64
2023/10/20 06:05:22;;;;;;;4.78;2.35;;;;;;;;;;5055495;28;20045;-64
2023/10/20 06:07:48;;;;;;;4.95;2.08;;;;;;;;;;5044025;28;20086;-64
2023/10/20 06:10:24;;;;;;;3.88;2.10;;;;;;;;;;5066993;28;20508;-65
2023/10/20 06:12:53;;;;;;;4.05;2.20;;;13.70;93.80;;;;;;5066219;28;20525;-65
2023/10/20 06:15:20;;;;;;;4.50;2.17;;;;;;;;;;5049278;28;20747;-64
2023/10/20 06:17:46;;;;;;;3.63;2.00;;;13.80;94.20;;;;;;5067405;28;20060;-64
2023/10/20 06:20:14;;;;;;;4.50;2.30;;;;;;;;;;5066620;28;20394;-64
2023/10/20 06:22:42;;;;;;;4.03;2.00;;;13.90;93.90;;;;;;5046051;28;20053;-64
2023/10/20 06:25:12;;;;;;;4.00;2.10;;;;;;;;;;5068843;28;20044;-67
2023/10/20 06:27:39;;;;;;;4.05;2.13;;;;;;;;;;5047546;28;20056;-64
2023/10/20 06:30:06;;;;;;;4.45;2.28;;;;;;;;;;5070767;28;20052;-64
2023/10/20 06:32:42;;;;;;;4.88;2.30;;;;;;;;;;5056806;28;20536;-64
2023/10/20 06:35:09;;;;;;;4.03;2.00;;;13.70;94.40;;;;;;5060814;28;20132;-64
2023/10/20 06:37:55;;;;;;;3.33;1.90;;;13.90;93.90;;;;;;5058522;28;20044;-67
2023/10/20 06:40:21;;;;;;;3.80;1.88;;;13.40;95.30;;;;;;5043054;28;20077;-65
2023/10/20 06:42:47;;;;;;;4.10;1.95;;;13.80;95.40;;;;;;5031520;28;20488;-65
2023/10/20 06:45:13;;;;;;;3.35;1.80;;;13.80;94.10;;;;;;5044572;28;20040;-65
2023/10/20 06:47:40;;;;;;;3.95;2.10;;;;;;;;;;5064504;28;20091;-66
2023/10/20 06:50:07;;;;;;;3.50;2.03;;;13.80;94.20;;;;;;5072196;28;20040;-76
2023/10/20 06:52:35;;;;;;;3.78;1.98;;;13.60;94.80;;;;;;5053327;28;20060;-67
2023/10/20 06:55:02;;;;;;;2.80;1.70;;;13.60;94.30;;;;;;5032206;28;20053;-68
2023/10/20 06:57:29;;;;;;;3.55;2.00;;;;;;;;;;5035910;28;20514;-69
2023/10/20 06:59:56;;;;;;;4.57;2.20;;;13.60;94.20;;;;;;5068050;28;20059;-73
2023/10/20 07:02:24;;;;;;;3.85;2.00;;;;;;;;;;5065162;28;20045;-69
2023/10/20 07:04:52;;;;;;;7.25;1.98;;;;;;;;;;5070727;28;20032;-72
2023/10/20 07:07:19;;;;;;;5.28;2.00;;;13.70;95.30;;;;;;5056711;28;20715;-69
2023/10/20 07:09:45;;;;;;;6.28;2.13;;;13.50;94.50;;;;;;5039929;28;20044;-65
2023/10/20 07:12:12;;;;;;;8.40;2.10;;;;;;;;;;5031669;28;20056;-72
2023/10/20 07:14:40;;;;;;;6.28;2.60;;;13.60;94.40;;;;;;5057707;28;20052;-70
2023/10/20 07:17:06;;;;;;;4.55;1.92;;;13.70;95.40;;;;;;5062090;28;20383;-66
2023/10/20 07:19:35;;;;;;;7.13;2.03;;;13.40;93.90;;;;;;5065387;28;20055;-68
2023/10/20 07:22:05;;;;;;;3.72;2.03;;;;;;;;;;5070422;28;20052;-71
2023/10/20 07:24:31;;;;;;;3.70;1.98;;;13.60;95.40;;;;;;5071705;28;20057;-70
2023/10/20 07:26:59;;;;;;;4.68;2.42;;;;;;;;;;5067421;28;20053;-73
2023/10/20 07:29:25;;;;;;;5.32;2.10;;;;;;;;;;5054484;28;20045;-73
2023/10/20 07:31:51;;;;;;;5.75;2.25;;;;;;;;;;5023075;28;20079;-68
2023/10/20 07:34:17;;;;;;;4.95;1.90;;;;;;;;;;5036354;28;20113;-72
2023/10/20 07:36:45;;;;;;;4.13;2.00;;;13.50;94.60;;;;;;5058463;28;20056;-72
2023/10/20 07:39:16;;;;;;;5.93;2.40;;;;;;;;;;5039422;28;20533;-75
2023/10/20 07:41:43;;;;;;;5.32;2.42;;;13.60;94.30;;;;;;5039065;28;20368;-65
2023/10/20 07:44:11;;;;;;;4.47;2.20;;;13.80;94.30;;;;;;5022939;28;20403;-69
2023/10/20 07:46:37;;;;;;;4.10;2.20;;;;;;;;;;5047002;28;20049;-67
2023/10/20 07:49:04;;;;;;;3.42;2.05;;;13.70;94.00;;;;;;5053752;28;20041;-67
2023/10/20 07:51:30;;;;;;;4.70;2.03;;;;;;;;;;5065649;28;20539;-73
2023/10/20 07:53:56;;;;;;;4.63;2.40;;;13.80;95.20;;;;;;5045363;28;20049;-69
2023/10/20 07:56:22;;;;;;;4.68;2.05;;;;;;;;;;5033780;28;20116;-69
2023/10/20 07:58:48;;;;;;;5.07;2.10;;;13.70;95.20;;;;;;5017029;28;20487;-70
2023/10/20 08:01:14;;;;;;;3.72;2.10;;;;;;;;;;5050366;28;20150;-69
2023/10/20 08:03:45;;;;;;;4.22;2.15;;;13.60;95.10;;;;;;5038237;28;20399;-74
2023/10/20 08:06:11;;;;;;;4.50;2.30;;;;;;;;;;5053827;28;20048;-66
2023/10/20 08:08:37;;;;;;;4.55;2.15;;;13.40;94.90;;;;;;5053012;28;20099;-65
2023/10/20 08:11:09;;;;;;;4.45;2.10;;;13.80;94.20;;;;;;5048282;28;20092;-64
2023/10/20 08:13:35;;;;;;;4.53;2.03;;;;;;;;;;5044624;28;20049;-67
2023/10/20 08:16:03;;;;;;;4.20;2.10;;;13.30;94.10;;;;;;5026279;28;20048;-71
2023/10/20 08:18:33;;;;;;;5.18;1.98;;;13.60;95.20;;;;;;5033010;28;20171;-72
2023/10/20 08:21:03;;;;;;;3.65;2.05;;;13.40;93.60;;;;;;5049088;28;20049;-69
2023/10/20 08:23:29;;;;;;;3.70;2.13;;;13.40;94.10;;;;;;5044525;28;20301;-73
2023/10/20 08:25:55;;;;;;;5.30;2.50;;;;;;;;;;5054014;28;20118;-65
2023/10/20 08:28:21;;;;;;;4.05;2.10;;;13.30;95.00;;;;;;5054404;28;20056;-72
2023/10/20 08:30:46;;;;;;;3.90;2.10;;;13.40;95.20;;;;;;5043911;28;20045;-70
2023/10/20 08:33:12;;;;;;;4.05;2.10;;;13.50;95.00;;;;;;5044480;28;20060;-77
2023/10/20 08:35:38;;;;;;;4.25;2.20;;;13.40;95.30;;;;;;5045848;28;20049;-69
2023/10/20 08:38:04;;;;;;;4.68;2.03;;;13.40;95.30;;;;;;5050386;28;20164;-72
2023/10/20 08:40:34;;;;;;;4.63;2.25;;;;;;;;;;5034124;28;20420;-64
2023/10/20 08:43:04;;;;;;;4.35;2.20;;;13.50;93.70;;;;;;5034244;28;20106;-63
2023/10/20 08:45:33;;;;;;;3.42;1.92;;;13.40;93.60;;;;;;5030196;28;20395;-64
2023/10/20 08:48:03;;;;;;;4.72;2.10;;;;;;;;;;5041009;28;20076;-64
2023/10/20 08:50:31;;;;;;;4.22;2.10;;;13.20;94.20;;;;;;5033855;28;20052;-63
2023/10/20 08:52:58;;;;;;;4.93;2.30;;;;;;;;;;5032505;28;20052;-63
2023/10/20 08:55:24;;;;;;;3.97;1.80;;;;;;;;;;5016438;28;20045;-63
2023/10/20 08:57:50;;;;;;;4.13;2.15;;;;;;;;;;5052211;28;20137;-63
2023/10/20 09:00:20;;;;;;;3.92;2.10;;;;;;;;;;5051069;28;20098;-64
2023/10/20 09:02:47;;;;;;;3.65;1.70;;;;;;;;;;5060163;28;20045;-64
2023/10/20 09:05:20;;;;;;;10.00;2.17;;;;;;;;;;5042931;28;20123;-63
2023/10/20 09:07:56;;;;;;;7.22;2.00;;;;;;;;;;5009303;28;20049;-63
2023/10/20 09:10:23;;;;;;;5.13;1.90;;;13.60;93.90;;;;;;5046254;28;20049;-63
2023/10/20 09:12:49;;;;;;;4.93;2.25;;;;;;;;;;5044439;28;20125;-63
2023/10/20 09:15:16;;;;;;;4.95;1.90;;;;;;;;;;5031755;28;20112;-63
2023/10/20 09:17:44;;;;;;;5.28;1.38;;;;;;;;;;5046216;28;20083;-64
2023/10/20 09:20:11;;;;;;;4.40;1.73;;;;;;;;;;5034304;28;20044;-63
2023/10/20 09:22:41;;;;;;;3.55;1.60;;;13.80;94.30;;;;;;5039964;28;20061;-63
2023/10/20 09:25:10;;;;;;;4.18;1.70;;;14.10;94.10;;;;;;5032900;28;20041;-63
2023/10/20 09:27:40;;;;;;;3.03;1.52;;;14.00;94.70;;;;;;5030592;28;20124;-64
2023/10/20 09:30:16;;;;;;;4.38;1.67;;;14.00;94.10;;;;;;5058096;28;20395;-65
2023/10/20 09:32:43;;;;;;;2.90;1.50;;;;;;;;;;5036500;28;20044;-64
2023/10/20 09:35:09;;;;;;;3.45;1.80;;;;;;;;;;5051021;28;20123;-64
2023/10/20 09:37:38;;;;;;;4.25;1.75;;;;;;;;;;5038107;28;20045;-64
2023/10/20 09:40:06;;;;;;;3.60;1.38;;;14.00;93.60;;;;;;5033083;28;20152;-64
2023/10/20 09:42:46;;;;;;;2.75;1.35;;;13.90;93.90;;;;;;5048243;28;20041;-63
2023/10/20 09:45:15;;;;;;;6.60;2.00;;;;;;;;;;5031587;28;20053;-64
2023/10/20 09:47:42;;;;;;;5.68;1.60;;;14.00;93.90;;;;;;5032945;28;20436;-64
2023/10/20 09:50:11;;;;;;;21.50;7.63;;;;;;;;;;5014816;28;20193;-64
2023/10/20 09:52:40;;;;;;;270.25;86.68;;;13.90;93.90;;;;;;5051147;28;20096;-67
2023/10/20 09:55:07;;;;;;;488.92;169.27;;;;;;;;;;5046998;28;20081;-63
2023/10/20 09:57:34;;;;;;;299.33;93.00;;;;;;;;;;5036793;28;20131;-63
2023/10/20 10:00:07;;;;;;;324.25;105.80;;;13.50;93.80;;;;;;5051713;28;20553;-63
2023/10/20 10:02:33;;;;;;;146.00;47.88;;;;;;;;;;5032948;28;20569;-62
2023/10/20 10:05:00;;;;;;;122.50;43.78;;;;;;;;;;5015359;28;20779;-63
2023/10/20 10:07:30;;;;;;;112.63;39.72;;;;;;;;;;5024657;28;20112;-64
2023/10/20 10:09:57;;;;;;;75.03;27.30;;;13.40;94.90;;;;;;5039344;28;20045;-64
2023/10/20 10:12:24;;;;;;;53.38;19.17;;;13.20;93.90;;;;;;5046870;28;20399;-64
2023/10/20 10:14:58;;;;;;;41.00;14.85;;;13.40;93.50;;;;;;5030926;28;20144;-64
2023/10/20 10:17:26;;;;;;;31.83;13.25;;;13.20;93.70;;;;;;5031971;28;20152;-71
2023/10/20 10:19:53;;;;;;;30.15;12.40;;;;;;;;;;5031246;28;20442;-64
2023/10/20 10:22:26;;;;;;;34.83;12.35;;;13.30;95.00;;;;;;5038031;28;20395;-65
2023/10/20 10:24:56;;;;;;;25.77;10.10;;;;;;;;;;5029656;28;20045;-64
2023/10/20 10:27:22;;;;;;;20.42;8.07;;;;;;;;;;5050572;28;20502;-63
2023/10/20 10:30:09;;;;;;;18.17;7.22;;;13.20;94.00;;;;;;5052183;28;20041;-63
2023/10/20 10:32:44;;;;;;;13.55;5.60;;;13.20;94.00;;;;;;5041943;28;20103;-63
2023/10/20 10:35:15;;;;;;;11.05;5.28;;;13.20;93.80;;;;;;5036197;28;20116;-63
2023/10/20 10:37:41;;;;;;;11.52;5.13;;;;;;;;;;5037472;28;20053;-63
2023/10/20 10:40:12;;;;;;;14.48;4.43;;;13.20;93.30;;;;;;5030526;28;20136;-64
2023/10/20 10:42:42;;;;;;;8.05;3.50;;;;;;;;;;5036172;28;20041;-67
2023/10/20 10:45:21;;;;;;;8.25;3.28;;;;;;;;;;5050897;28;20064;-76
2023/10/20 10:47:51;;;;;;;7.90;3.30;;;13.10;94.20;;;;;;5051813;28;20585;-65
2023/10/20 10:50:20;;;;;;;6.82;2.92;;;;;;;;;;5034707;28;20406;-73
2023/10/20 10:52:47;;;;;;;7.05;2.70;;;;;;;;;;5042232;28;20517;-68
2023/10/20 10:55:13;;;;;;;10.75;3.15;;;;;;;;;;5038056;28;20053;-68
2023/10/20 10:57:40;;;;;;;4.90;2.20;;;;;;;;;;5034414;28;20099;-77
2023/10/20 11:00:06;;;;;;;5.38;2.25;;;13.40;95.10;;;;;;5035783;28;20053;-74
2023/10/20 11:02:32;;;;;;;5.13;2.10;;;13.30;93.70;;;;;;5038446;28;20080;-69
2023/10/20 11:04:59;;;;;;;3.75;1.65;;;13.20;95.10;;;;;;5034802;28;20041;-71
2023/10/20 11:07:26;;;;;;;4.65;1.90;;;13.30;94.70;;;;;;5057055;28;20041;-66
2023/10/20 11:09:51;;;;;;;6.53;1.88;;;13.20;95.10;;;;;;5045140;28;20398;-63
2023/10/20 11:12:18;;;;;;;4.72;2.15;;;;;;;;;;5026167;28;20040;-63
2023/10/20 11:14:44;;;;;;;4.45;1.60;;;;;;;;;;5051422;28;20052;-63
2023/10/20 11:17:10;;;;;;;3.72;1.85;;;13.00;95.00;;;;;;5051714;28;20049;-63
2023/10/20 11:19:36;;;;;;;4.68;1.50;;;;;;;;;;5051873;28;20044;-64
2023/10/20 11:22:02;;;;;;;4.72;1.67;;;;;;;;;;5054479;28;20041;-64
2023/10/20 11:24:31;;;;;;;4.15;1.30;;;13.20;93.80;;;;;;5053985;28;20041;-63
2023/10/20 11:27:07;;;;;;;3.28;1.50;;;;;;;;;;5052489;28;20120;-74
2023/10/20 11:29:35;;;;;;;3.95;1.40;;;13.20;94.30;;;;;;5030494;28;20595;-63
2023/10/20 11:32:05;;;;;;;3.35;1.42;;;;;;;;;;5045574;28;20112;-67
2023/10/20 11:34:34;;;;;;;3.13;1.38;;;13.20;94.10;;;;;;5037940;28;20398;-64
2023/10/20 11:37:01;;;;;;;2.95;1.38;;;12.90;95.10;;;;;;5052365;28;20095;-74
2023/10/20 11:39:27;;;;;;;3.25;1.50;;;13.10;95.10;;;;;;5029871;28;20045;-75
2023/10/20 11:41:56;;;;;;;3.42;1.50;;;13.30;93.60;;;;;;5033518;28;20053;-64
2023/10/20 11:44:24;;;;;;;2.17;1.00;;;;;;;;;;5017327;28;20387;-67
2023/10/20 11:46:59;;;;;;;4.63;1.38;;;;;;;;;;5034127;28;20049;-80
2023/10/20 11:49:25;;;;;;;2.75;1.00;;;13.00;95.20;;;;;;5033773;28;20060;-74
2023/10/20 11:51:51;;;;;;;3.10;1.15;;;;;;;;;;5034751;28;20562;-67
2023/10/20 11:54:18;;;;;;;2.00;1.10;;;13.20;95.30;;;;;;5049761;28;20075;-63
2023/10/20 11:56:44;;;;;;;3.97;1.15;;;;;;;;;;5037833;28;20568;-65
2023/10/20 11:59:11;;;;;;;7.30;1.70;;;;;;;;;;5050302;28;20045;-64
2023/10/20 12:01:38;;;;;;;4.22;1.73;;;13.10;95.10;;;;;;5053251;28;20127;-64
2023/10/20 12:04:08;;;;;;;5.30;1.60;;;13.10;95.40;;;;;;5034915;28;20033;-64
2023/10/20 12:06:38;;;;;;;4.85;1.38;;;;;;;;;;5033426;28;20119;-64
2023/10/20 12:09:08;;;;;;;3.50;1.10;;;;;;;;;;5048856;28;20128;-65
2023/10/20 12:11:37;;;;;;;4.45;1.00;;;13.30;93.70;;;;;;5033040;28;20053;-64
2023/10/20 12:14:08;;;;;;;6.05;1.23;;;13.30;94.30;;;;;;5037517;28;20051;-68
2023/10/20 12:16:35;;;;;;;4.28;1.20;;;;;;;;;;5032836;28;20060;-64
2023/10/20 12:19:01;;;;;;;2.97;1.30;;;;;;;;;;5034676;28;20064;-66
2023/10/20 12:21:31;;;;;;;2.63;0.88;;;;;;;;;;5054413;28;20045;-65
2023/10/20 12:23:57;;;;;;;4.22;1.27;;;;;;;;;;5054424;28;20037;-64
2023/10/20 12:26:23;;;;;;;3.33;1.20;;;;;;;;;;5050880;28;20459;-64
2023/10/20 12:28:50;;;;;;;3.92;1.25;;;13.30;95.30;;;;;;5060702;28;20045;-64
2023/10/20 12:31:17;;;;;;;2.40;0.85;;;;;;;;;;5032675;28;20132;-64
2023/10/20 12:33:44;;;;;;;2.63;1.08;;;13.30;95.30;;;;;;5034274;28;20406;-64
2023/10/20 12:36:13;;;;;;;3.40;1.00;;;;;;;;;;5030221;28;20052;-67
2023/10/20 12:38:40;;;;;;;5.38;1.20;;;13.30;95.40;;;;;;5032348;28;20046;-70
2023/10/20 12:41:07;;;;;;;3.22;1.17;;;;;;;;;;5032629;28;20053;-67
2023/10/20 12:43:33;;;;;;;3.60;0.90;;;13.10;95.10;;;;;;5032622;28;20510;-71
2023/10/20 12:46:00;;;;;;;3.58;1.20;;;13.20;94.80;;;;;;5033726;28;20046;-66
2023/10/20 12:48:27;;;;;;;3.00;1.05;;;;;;;;;;5034018;28;20055;-66
2023/10/20 12:50:53;;;;;;;1.70;0.95;;;;;;;;;;5034114;28;20375;-68
2023/10/20 12:53:23;;;;;;;2.85;0.82;;;;;;;;;;5035372;28;20059;-71
2023/10/20 12:55:49;;;;;;;4.40;0.90;;;;;;;;;;5049798;28;20347;-71
2023/10/20 12:58:16;;;;;;;2.58;0.82;;;;;;;;;;5032176;28;20049;-70
2023/10/20 13:00:42;;;;;;;3.13;0.90;;;;;;;;;;5034895;28;20502;-65
2023/10/20 13:03:08;;;;;;;2.63;0.90;;;13.30;95.30;;;;;;5047204;28;20060;-66
2023/10/20 13:05:34;;;;;;;7.40;1.48;;;;;;;;;;5032822;28;20053;-67
2023/10/20 13:08:00;;;;;;;4.95;1.10;;;13.30;95.30;;;;;;5050592;28;20107;-65
2023/10/20 13:10:26;;;;;;;5.82;1.20;;;13.20;95.30;;;;;;5043032;28;20059;-70
2023/10/20 13:12:52;;;;;;;6.20;1.27;;;;;;;;;;5053039;28;20060;-65
2023/10/20 13:15:19;;;;;;;3.63;1.10;;;;;;;;;;5052488;28;20045;-65
2023/10/20 13:17:45;;;;;;;5.25;1.33;;;13.30;94.00;;;;;;5050887;28;20049;-63
2023/10/20 13:20:13;;;;;;;4.28;1.15;;;13.30;95.40;;;;;;5050927;28;20045;-64
2023/10/20 13:22:39;;;;;;;4.30;1.00;;;13.00;94.20;;;;;;5051986;28;20048;-64
2023/10/20 13:25:06;;;;;;;2.40;0.88;;;;;;;;;;5050774;28;20138;-68
2023/10/20 13:27:33;;;;;;;2.58;1.10;;;;;;;;;;5046786;28;20530;-76
2023/10/20 13:30:00;;;;;;;5.07;1.00;;;;;;;;;;5031642;28;20077;-72
2023/10/20 13:32:26;;;;;;;3.17;0.90;;;13.30;94.20;;;;;;5031273;28;20053;-64
2023/10/20 13:34:53;;;;;;;2.72;0.60;;;;;;;;;;5039879;28;20045;-66
2023/10/20 13:37:19;;;;;;;3.00;0.80;;;;;;;;;;5052610;28;20052;-73
2023/10/20 13:39:45;;;;;;;2.55;0.80;;;13.20;95.50;;;;;;5052595;28;20120;-70
2023/10/20 13:42:11;;;;;;;2.05;1.00;;;;;;;;;;5046342;28;20094;-71
2023/10/20 13:44:37;;;;;;;1.80;0.80;;;;;;;;;;5047693;28;20040;-74
2023/10/20 13:47:04;;;;;;;2.67;1.00;;;;;;;;;;5051456;28;20052;-64
2023/10/20 13:49:30;;;;;;;1.38;0.55;;;;;;;;;;5051723;28;20041;-72
2023/10/20 13:51:56;;;;;;;1.58;0.82;;;13.00;95.50;;;;;;5051550;28;20041;-64
2023/10/20 13:54:24;;;;;;;2.22;0.95;;;;;;;;;;5048991;28;20037;-64
2023/10/20 13:56:50;;;;;;;1.48;0.63;;;;;;;;;;5044470;28;20136;-65
2023/10/20 13:59:16;;;;;;;0.75;0.50;;;;;;;;;;5045719;28;20089;-65
2023/10/20 14:01:42;;;;;;;1.20;0.70;;;;;;;;;;5038689;28;20057;-63
2023/10/20 14:04:09;;;;;;;1.00;0.60;;;;;;;;;;5031361;28;20057;-66
2023/10/20 14:06:35;;;;;;;1.63;0.80;;;;;;;;;;5053070;28;20448;-78
2023/10/20 14:09:01;;;;;;;1.83;0.80;;;;;;;;;;5035566;28;20044;-64
2023/10/20 14:11:28;;;;;;;2.75;0.95;;;;;;;;;;5043526;28;20498;-63
2023/10/20 14:13:54;;;;;;;1.30;0.70;;;;;;;;;;5050922;28;20135;-64
2023/10/20 14:16:20;;;;;;;15.95;1.88;;;;;;;;;;5037911;28;20076;-64
2023/10/20 14:18:46;;;;;;;11.40;1.98;;;;;;;;;;5037442;28;20057;-64
2023/10/20 14:21:14;;;;;;;7.72;0.95;;;;;;;;;;5037419;28;20058;-64
2023/10/20 14:23:40;;;;;;;2.67;0.85;;;;;;;;;;5031677;28;20053;-64
2023/10/20 14:26:07;;;;;;;3.90;0.82;;;;;;;;;;5032034;28;20391;-64
2023/10/20 14:28:33;;;;;;;5.30;1.20;;;;;;;;;;5032339;28;20050;-64